Time;durP1;ratioP1;P1;durP2;ratioP2;P2;SDS_P1;SDS_P2;PMS_P1;PMS_P2;Temp;Humidity;BMP_temperature;BMP_pressure;BME280_temperature;BME280_humidity;BME280_pressure;Samples;Min_cycle;Max_cycle;Signal;HPM_P1;HPM_P2
2021/09/30 00:01:16;;;;;;;7.13;1.67;;;;;;;;;;5042259;28;20025;-88
2021/09/30 00:03:41;;;;;;;3.83;2.00;;;;;;;;;;5042507;28;20105;-88
2021/09/30 00:06:07;;;;;;;3.30;1.27;;;;;;;;;;5026128;28;20122;-87
2021/09/30 00:08:32;;;;;;;3.72;1.92;;;;;;;;;;5042083;28;20048;-88
2021/09/30 00:11:07;;;;;;;2.33;1.77;;;;;;;;;;5027461;28;20009;-87
2021/09/30 00:33:21;;;;;;;3.88;1.95;;;;;;;;;;5040964;28;20040;-88
2021/09/30 00:45:45;;;;;;;4.40;2.15;;;;;;;;;;5040709;28;20091;-86
2021/09/30 00:48:39;;;;;;;5.07;1.92;;;;;;;;;;5041769;28;20052;-88
2021/09/30 01:19:22;;;;;;;5.10;2.47;;;;;;;;;;5122791;27;1201719;-88
2021/09/30 02:23:31;;;;;;;4.93;3.33;;;;;;;;;;5098964;28;20077;-88
2021/09/30 02:40:00;;;;;;;10.32;3.60;;;;;;;;;;5083157;28;20478;-86
2021/09/30 02:59:10;;;;;;;4.47;3.33;;;;;;;;;;5079107;28;20043;-85
2021/09/30 03:01:38;;;;;;;8.43;3.30;;;;;;;;;;5078879;28;20027;-86
2021/09/30 03:04:04;;;;;;;6.38;3.55;;;;;;;;;;5079661;28;20020;-86
2021/09/30 03:06:30;;;;;;;5.80;3.80;;;;;;;;;;5079077;28;20082;-85
2021/09/30 03:08:59;;;;;;;10.38;3.53;;;;;;;;;;5082854;28;20024;-85
2021/09/30 03:11:27;;;;;;;5.90;3.83;;;;;;;;;;5094480;28;20028;-85
2021/09/30 03:13:55;;;;;;;8.35;4.10;;;;;;;;;;5094685;28;20027;-86
2021/09/30 03:16:30;;;;;;;8.30;3.97;;;;;;;;;;5097408;28;20020;-86
2021/09/30 03:18:59;;;;;;;7.38;4.10;;;;;;;;;;5101719;28;20035;-87
2021/09/30 03:24:13;;;;;;;4.57;4.10;;;;;;;;;;5081552;28;20074;-86
2021/09/30 03:26:39;;;;;;;6.60;4.03;;;;;;;;;;5080216;28;20044;-86
2021/09/30 03:29:07;;;;;;;6.07;4.35;;;;;;;;;;5085995;28;20024;-86
2021/09/30 03:31:32;;;;;;;9.15;4.70;;;;;;;;;;5099142;28;20109;-86
2021/09/30 03:33:59;;;;;;;10.23;4.00;;;;;;;;;;5100489;28;20062;-86
2021/09/30 03:36:25;;;;;;;7.40;3.80;;;;;;;;;;5101177;28;20121;-87
2021/09/30 03:38:50;;;;;;;5.65;4.10;;;;;;;;;;5099510;28;20034;-86
2021/09/30 03:41:16;;;;;;;7.85;4.30;;;;;;;;;;5100182;28;20101;-86
2021/09/30 03:43:41;;;;;;;5.55;4.32;;;;;;;;;;5104034;28;20016;-86
2021/09/30 03:46:07;;;;;;;8.75;4.32;;;;;;;;;;5101286;28;20028;-85
2021/09/30 03:48:33;;;;;;;9.13;4.38;;;;;;;;;;5100881;28;20020;-86
2021/09/30 04:01:02;;;;;;;7.45;4.03;;;;;;;;;;5099836;28;20062;-86
2021/09/30 04:03:27;;;;;;;6.38;4.13;;;;;;;;;;5099684;28;20024;-86
2021/09/30 04:05:52;;;;;;;7.78;4.32;;;;;;;;;;5097200;28;20023;-85
2021/09/30 04:08:18;;;;;;;8.50;4.28;;;;;;;;;;5099369;28;20048;-86
2021/09/30 04:10:43;;;;;;;10.75;4.35;;;;;;;;;;5081616;28;20482;-86
2021/09/30 04:13:08;;;;;;;10.13;4.63;;;;;;;;;;5078240;28;20430;-87
2021/09/30 04:15:34;;;;;;;6.07;4.38;;;;;;;;;;5079969;28;20027;-87
2021/09/30 04:17:59;;;;;;;6.20;4.32;;;;;;;;;;5078296;28;20157;-86
2021/09/30 04:20:27;;;;;;;8.93;5.03;;;;;;;;;;5082088;28;20107;-86
2021/09/30 04:22:53;;;;;;;8.52;4.68;;;;;;;;;;5081391;28;20029;-86
2021/09/30 04:25:18;;;;;;;8.45;5.22;;;;;;;;;;5081430;28;20021;-86
2021/09/30 04:27:43;;;;;;;9.02;4.30;;;;;;;;;;5080801;28;20472;-85
2021/09/30 04:30:09;;;;;;;8.90;4.90;;;;;;;;;;5078467;28;20032;-86
2021/09/30 04:32:35;;;;;;;11.23;5.05;;;;;;;;;;5080577;28;20030;-85
2021/09/30 04:35:01;;;;;;;13.30;5.05;;;;;;;;;;5079859;28;20103;-85
2021/09/30 04:37:27;;;;;;;10.73;4.80;;;;;;;;;;5094619;28;20027;-85
2021/09/30 04:39:52;;;;;;;8.10;4.95;;;;;;;;;;5097901;28;20571;-86
2021/09/30 04:42:18;;;;;;;10.65;5.28;;;;;;;;;;5096192;28;20055;-87
2021/09/30 04:44:43;;;;;;;11.95;5.22;;;;;;;;;;5098898;28;20096;-87
2021/09/30 04:47:09;;;;;;;10.35;4.90;;;;;;;;;;5080195;28;20024;-86
2021/09/30 04:49:34;;;;;;;9.07;5.13;;;;;;;;;;5079064;28;20036;-86
2021/09/30 04:52:00;;;;;;;11.10;5.10;;;;;;;;;;5091500;28;20085;-88
2021/09/30 04:54:25;;;;;;;9.77;4.22;;;;;;;;;;5101429;28;20023;-86
2021/09/30 04:56:50;;;;;;;7.30;4.63;;;;;;;;;;5101389;28;20096;-87
2021/09/30 04:59:16;;;;;;;10.05;4.57;;;;;;;;;;5100101;28;20020;-87
2021/09/30 05:01:41;;;;;;;10.38;4.80;;;;;;;;;;5101099;28;20032;-86
2021/09/30 05:04:07;;;;;;;11.15;4.90;;;;;;;;;;5098045;28;20024;-85
2021/09/30 05:06:32;;;;;;;10.75;4.72;;;;;;;;;;5100353;28;20010;-84
2021/09/30 05:08:59;;;;;;;10.27;4.35;;;;;;;;;;5099182;28;20103;-84
2021/09/30 05:11:31;;;;;;;10.10;4.47;;;;;;;;;;5097493;28;20445;-86
2021/09/30 05:13:58;;;;;;;9.18;4.30;;;;;;;;;;5095569;28;20026;-86
2021/09/30 05:16:24;;;;;;;18.20;5.10;;;;;;;;;;5091467;28;20115;-86
2021/09/30 05:18:52;;;;;;;8.32;3.83;;;;;;;;;;5081209;28;20043;-87
2021/09/30 05:21:17;;;;;;;10.50;4.10;;;;;;;;;;5092174;28;20038;-87
2021/09/30 05:23:43;;;;;;;13.63;4.00;;;;;;;;;;5085535;28;20099;-85
2021/09/30 05:26:09;;;;;;;6.65;3.90;;;;;;;;;;5075872;28;20050;-86
2021/09/30 05:28:35;;;;;;;13.57;4.20;;;;;;;;;;5073562;28;20391;-87
2021/09/30 05:31:00;;;;;;;14.68;4.18;;;;;;;;;;5071976;28;20111;-86
2021/09/30 05:33:26;;;;;;;8.05;3.72;;;;;;;;;;5074363;28;20043;-86
2021/09/30 05:35:52;;;;;;;11.93;4.35;;;;;;;;;;5087336;28;20077;-85
2021/09/30 05:38:17;;;;;;;11.43;3.72;;;;;;;;;;5094560;28;20028;-87
2021/09/30 05:40:47;;;;;;;15.00;4.00;;;;;;;;;;5094729;28;20020;-86
2021/09/30 05:43:19;;;;;;;12.82;3.95;;;;;;;;;;5096544;28;20027;-86
2021/09/30 05:45:44;;;;;;;11.90;3.60;;;;;;;;;;5097530;28;20024;-85
2021/09/30 05:48:10;;;;;;;10.30;3.65;;;;;;;;;;5111229;28;20165;-85
2021/09/30 05:50:36;;;;;;;6.50;3.45;;;;;;;;;;5108795;28;20024;-85
2021/09/30 05:53:01;;;;;;;7.50;3.83;;;;;;;;;;5096398;28;20023;-85
2021/09/30 05:55:27;;;;;;;11.25;3.90;;;;;;;;;;5085847;28;20033;-85
2021/09/30 05:57:52;;;;;;;7.68;3.78;;;;;;;;;;5076893;28;20021;-85
2021/09/30 06:00:51;;;;;;;15.55;4.38;;;;;;;;;;5076008;28;20024;-86
2021/09/30 06:08:46;;;;;;;11.13;4.20;;;;;;;;;;5086004;28;20043;-85
2021/09/30 06:09:43;;;;;;;8.40;3.08;;;;;;;;;;5099669;28;20012;-85
2021/09/30 06:14:30;;;;;;;5.97;3.40;;;;;;;;;;5077363;28;20038;-85
2021/09/30 06:16:55;;;;;;;13.95;3.97;;;;;;;;;;5104624;28;20111;-84
2021/09/30 06:19:21;;;;;;;7.72;2.95;;;;;;;;;;5101060;28;20518;-84
2021/09/30 06:21:51;;;;;;;8.15;3.33;;;;;;;;;;5099947;28;20210;-85
2021/09/30 06:24:18;;;;;;;12.48;3.33;;;;;;;;;;5098405;28;20023;-85
2021/09/30 06:26:44;;;;;;;12.27;4.68;;;;;;;;;;5099147;28;20051;-85
2021/09/30 06:29:10;;;;;;;14.05;3.00;;;;;;;;;;5097461;28;20024;-84
2021/09/30 06:31:35;;;;;;;8.27;3.13;;;;;;;;;;5096612;28;20479;-85
2021/09/30 06:34:00;;;;;;;8.43;3.10;;;;;;;;;;5097992;28;20020;-85
2021/09/30 06:36:26;;;;;;;6.93;2.78;;;;;;;;;;5098138;28;20054;-85
2021/09/30 06:38:51;;;;;;;10.43;2.80;;;;;;;;;;5099933;28;20059;-85
2021/09/30 06:41:16;;;;;;;5.40;2.63;;;;;;;;;;5097306;28;20028;-85
2021/09/30 06:43:42;;;;;;;10.15;3.20;;;;;;;;;;5096524;28;20031;-85
2021/09/30 06:46:07;;;;;;;13.98;3.20;;;;;;;;;;5096410;28;20027;-85
2021/09/30 06:48:32;;;;;;;9.93;3.08;;;;;;;;;;5095876;28;20020;-85
2021/09/30 06:50:57;;;;;;;12.90;3.00;;;;;;;;;;5096773;28;20020;-85
2021/09/30 06:53:23;;;;;;;14.10;2.85;;;;;;;;;;5095121;28;20028;-85
2021/09/30 06:55:48;;;;;;;10.98;2.97;;;;;;;;;;5095092;28;20372;-86
2021/09/30 06:58:14;;;;;;;7.53;2.70;;;;;;;;;;5096227;28;20024;-85
2021/09/30 07:00:41;;;;;;;12.40;3.38;;;;;;;;;;5096674;28;20478;-86
2021/09/30 07:03:08;;;;;;;11.63;3.30;;;;;;;;;;5096628;28;20028;-85
2021/09/30 07:05:33;;;;;;;6.68;2.67;;;;;;;;;;5095031;28;20052;-86
2021/09/30 07:08:03;;;;;;;12.73;3.33;;;;;;;;;;5095327;28;20510;-85
2021/09/30 07:10:28;;;;;;;8.70;2.97;;;;;;;;;;5094990;28;20049;-85
2021/09/30 07:12:53;;;;;;;6.30;2.42;;;;;;;;;;5095366;28;20134;-85
2021/09/30 07:15:19;;;;;;;10.05;2.58;;;;;;;;;;5094874;28;20372;-85
2021/09/30 07:17:44;;;;;;;7.47;2.80;;;;;;;;;;5096474;28;20032;-85
2021/09/30 07:20:10;;;;;;;14.07;2.90;;;;;;;;;;5095939;28;20020;-85
2021/09/30 07:22:36;;;;;;;6.38;2.50;;;;;;;;;;5095376;28;20028;-85
2021/09/30 07:25:02;;;;;;;10.07;2.80;;;;;;;;;;5096556;28;20036;-85
2021/09/30 07:27:28;;;;;;;10.65;2.60;;;;;;;;;;5105308;28;20031;-85
2021/09/30 07:29:53;;;;;;;4.35;2.38;;;;;;;;;;5114389;28;20111;-85
2021/09/30 07:32:19;;;;;;;10.05;2.65;;;;;;;;;;5096987;28;20038;-85
2021/09/30 07:34:44;;;;;;;11.30;2.33;;;;;;;;;;5096655;28;20024;-86
2021/09/30 07:37:09;;;;;;;9.00;2.25;;;;;;;;;;5094265;28;20024;-85
2021/09/30 07:39:35;;;;;;;8.82;2.90;;;;;;;;;;5094013;28;20093;-85
2021/09/30 07:42:00;;;;;;;12.40;2.40;;;;;;;;;;5094463;28;20043;-86
2021/09/30 07:44:26;;;;;;;7.88;2.15;;;;;;;;;;5095604;28;20102;-85
2021/09/30 07:46:53;;;;;;;8.65;2.25;;;;;;;;;;5094016;28;20035;-85
2021/09/30 07:49:19;;;;;;;14.55;2.22;;;;;;;;;;5094422;28;20019;-85
2021/09/30 07:51:45;;;;;;;6.65;1.95;;;;;;;;;;5095556;28;20111;-85
2021/09/30 07:54:11;;;;;;;9.50;2.25;;;;;;;;;;5095036;28;20039;-86
2021/09/30 07:56:37;;;;;;;5.43;1.85;;;;;;;;;;5094183;28;20048;-85
2021/09/30 07:59:03;;;;;;;6.72;2.05;;;;;;;;;;5105282;28;20032;-85
2021/09/30 08:01:28;;;;;;;6.10;1.50;;;;;;;;;;5096119;28;20024;-85
2021/09/30 08:03:54;;;;;;;4.50;1.38;;;;;;;;;;5096080;28;20020;-85
2021/09/30 08:06:20;;;;;;;7.10;2.25;;;;;;;;;;5095391;28;20027;-85
2021/09/30 08:08:46;;;;;;;9.68;1.92;;;;;;;;;;5094188;28;20395;-85
2021/09/30 08:11:11;;;;;;;8.48;2.28;;;;;;;;;;5093728;28;20020;-86
2021/09/30 08:13:37;;;;;;;4.47;1.67;;;;;;;;;;5096760;28;20039;-85
2021/09/30 08:16:04;;;;;;;9.18;1.92;;;;;;;;;;5099027;28;20024;-85
2021/09/30 08:18:29;;;;;;;6.90;1.60;;;;;;;;;;5093009;28;20054;-86
2021/09/30 08:20:55;;;;;;;10.85;2.65;;;;;;;;;;5073741;28;20021;-85
2021/09/30 08:23:20;;;;;;;6.03;1.63;;;;;;;;;;5080772;28;20475;-85
2021/09/30 08:25:46;;;;;;;12.15;1.75;;;;;;;;;;5095368;28;20051;-86
2021/09/30 08:28:12;;;;;;;5.57;1.50;;;;;;;;;;5092326;28;20103;-86
2021/09/30 08:30:40;;;;;;;5.60;1.80;;;;;;;;;;5095803;28;20024;-85
2021/09/30 08:33:06;;;;;;;8.57;1.27;;;;;;;;;;5093970;28;20024;-86
2021/09/30 08:35:32;;;;;;;9.15;1.83;;;;;;;;;;5087642;28;20479;-86
2021/09/30 08:37:57;;;;;;;10.07;1.77;;;;;;;;;;5080373;28;20047;-85
2021/09/30 08:40:23;;;;;;;5.70;1.60;;;;;;;;;;5093099;28;20020;-85
2021/09/30 08:42:48;;;;;;;5.60;1.45;;;;;;;;;;5093494;28;20487;-84
2021/09/30 08:45:22;;;;;;;9.70;2.15;;;;;;;;;;5093963;28;20032;-85
2021/09/30 08:47:59;;;;;;;7.93;1.55;;;;;;;;;;5093526;28;20024;-84
2021/09/30 08:50:25;;;;;;;9.98;2.05;;;;;;;;;;5092116;28;20016;-85
2021/09/30 08:52:51;;;;;;;3.80;1.40;;;;;;;;;;5093499;28;20028;-86
2021/09/30 08:55:16;;;;;;;6.88;1.33;;;;;;;;;;5093667;28;20433;-85
2021/09/30 08:57:47;;;;;;;8.32;1.30;;;;;;;;;;5093187;28;20024;-85
2021/09/30 09:00:13;;;;;;;18.25;2.05;;;;;;;;;;5092427;28;20044;-85
2021/09/30 09:02:43;;;;;;;11.18;1.80;;;;;;;;;;5093761;28;20028;-85
2021/09/30 09:05:09;;;;;;;8.65;1.23;;;;;;;;;;5092492;28;20051;-85
2021/09/30 09:07:34;;;;;;;11.23;1.85;;;;;;;;;;5093739;28;20027;-86
2021/09/30 09:10:09;;;;;;;8.10;1.10;;;;;;;;;;5093454;28;20020;-87
2021/09/30 09:12:34;;;;;;;6.75;1.30;;;;;;;;;;5083367;28;20548;-86
2021/09/30 09:15:01;;;;;;;9.93;1.40;;;;;;;;;;5073185;28;20179;-86
2021/09/30 09:17:26;;;;;;;8.98;1.60;;;;;;;;;;5071348;28;20464;-86
2021/09/30 09:19:58;;;;;;;9.45;1.50;;;;;;;;;;5092828;28;20024;-87
2021/09/30 09:22:33;;;;;;;9.25;2.10;;;;;;;;;;5093210;28;20028;-87
2021/09/30 09:25:11;;;;;;;9.50;1.23;;;;;;;;;;5094266;28;20221;-86
2021/09/30 09:27:54;;;;;;;7.10;1.38;;;;;;;;;;5093045;28;20028;-86
2021/09/30 09:30:24;;;;;;;10.23;1.60;;;;;;;;;;5092936;28;20028;-86
2021/09/30 09:33:01;;;;;;;10.82;1.48;;;;;;;;;;5092715;28;20486;-86
2021/09/30 09:35:26;;;;;;;7.97;1.40;;;;;;;;;;5093291;28;20052;-86
2021/09/30 09:37:59;;;;;;;6.55;1.55;;;;;;;;;;5094650;28;20489;-86
2021/09/30 09:40:24;;;;;;;8.45;1.50;;;;;;;;;;5098085;28;20450;-86
2021/09/30 09:42:50;;;;;;;9.93;1.52;;;;;;;;;;5096686;28;20114;-86
2021/09/30 09:45:15;;;;;;;11.45;1.50;;;;;;;;;;5096815;28;20024;-86
2021/09/30 09:47:43;;;;;;;4.97;1.30;;;;;;;;;;5100626;28;20020;-87
2021/09/30 09:50:20;;;;;;;5.70;1.40;;;;;;;;;;5099633;28;20024;-87
2021/09/30 09:52:54;;;;;;;7.93;1.40;;;;;;;;;;5099569;28;20031;-88
2021/09/30 09:55:21;;;;;;;4.88;1.48;;;;;;;;;;5101040;28;20032;-88
2021/09/30 09:58:07;;;;;;;4.25;1.00;;;;;;;;;;5101293;28;20020;-87
2021/09/30 10:00:35;;;;;;;9.55;1.60;;;;;;;;;;5102761;28;20030;-87
2021/09/30 10:03:18;;;;;;;8.73;1.27;;;;;;;;;;5102934;28;20058;-87
2021/09/30 10:05:45;;;;;;;12.48;1.85;;;;;;;;;;5104266;28;20051;-87
2021/09/30 10:08:12;;;;;;;8.73;1.35;;;;;;;;;;5105657;28;20529;-87
2021/09/30 10:10:38;;;;;;;8.25;1.35;;;;;;;;;;5104745;28;20054;-87
2021/09/30 10:13:04;;;;;;;10.07;1.30;;;;;;;;;;5102927;28;20107;-89
2021/09/30 10:15:30;;;;;;;6.57;1.10;;;;;;;;;;5103689;28;20087;-87
2021/09/30 10:17:56;;;;;;;6.10;1.30;;;;;;;;;;5103626;28;20036;-87
2021/09/30 10:20:21;;;;;;;5.10;1.00;;;;;;;;;;5104087;28;20035;-86
2021/09/30 10:22:54;;;;;;;6.60;1.50;;;;;;;;;;5103693;28;20052;-88
2021/09/30 10:25:20;;;;;;;7.03;1.02;;;;;;;;;;5103903;28;20016;-87
2021/09/30 10:27:54;;;;;;;8.00;1.77;;;;;;;;;;5107915;28;20567;-87
2021/09/30 10:30:35;;;;;;;4.80;1.20;;;;;;;;;;5108361;28;20019;-88
2021/09/30 10:33:02;;;;;;;7.25;1.33;;;;;;;;;;5105160;28;20032;-87
2021/09/30 10:35:35;;;;;;;9.65;1.50;;;;;;;;;;5103588;28;20027;-87
2021/09/30 10:38:22;;;;;;;8.98;1.48;;;;;;;;;;5104509;28;20028;-88
2021/09/30 10:40:59;;;;;;;8.23;1.55;;;;;;;;;;5105193;28;20066;-88
2021/09/30 10:43:26;;;;;;;10.52;1.35;;;;;;;;;;5103942;28;20521;-88
2021/09/30 10:45:51;;;;;;;6.32;1.13;;;;;;;;;;5103823;28;20038;-87
2021/09/30 10:48:22;;;;;;;7.75;1.25;;;;;;;;;;5103463;28;20032;-88
2021/09/30 10:50:51;;;;;;;5.82;1.35;;;;;;;;;;5110665;28;20055;-87
2021/09/30 10:53:17;;;;;;;10.48;1.73;;;;;;;;;;5107782;28;20079;-88
2021/09/30 10:55:43;;;;;;;7.28;1.75;;;;;;;;;;5107848;28;20036;-87
2021/09/30 10:58:26;;;;;;;9.13;1.27;;;;;;;;;;5105115;28;20395;-88
2021/09/30 11:00:58;;;;;;;9.15;1.20;;;;;;;;;;5103353;28;20031;-87
2021/09/30 11:03:24;;;;;;;5.20;1.33;;;;;;;;;;5103687;28;20020;-88
2021/09/30 11:06:17;;;;;;;8.23;1.17;;;;;;;;;;5103743;28;20031;-88
2021/09/30 11:08:47;;;;;;;;;;;;;;;;;;5103003;28;20020;-88
2021/09/30 11:11:16;;;;;;;8.75;1.38;;;;;;;;;;5104172;28;19908;-88
2021/09/30 11:13:47;;;;;;;10.57;1.70;;;;;;;;;;5103910;28;20020;-88
2021/09/30 11:16:16;;;;;;;9.27;0.82;;;;;;;;;;5107280;28;20024;-87
2021/09/30 11:18:55;;;;;;;7.75;0.98;;;;;;;;;;5097745;28;20046;-88
2021/09/30 11:21:33;;;;;;;10.48;1.13;;;;;;;;;;5093809;28;20024;-87
2021/09/30 11:24:19;;;;;;;10.07;1.23;;;;;;;;;;5098494;28;20028;-86
2021/09/30 11:26:53;;;;;;;5.63;0.82;;;;;;;;;;5077467;28;20093;-87
2021/09/30 11:29:21;;;;;;;10.55;1.50;;;;;;;;;;5076074;28;20032;-87
2021/09/30 11:31:59;;;;;;;14.80;1.33;;;;;;;;;;5074252;28;20077;-88
2021/09/30 11:34:33;;;;;;;12.60;1.33;;;;;;;;;;5074180;28;20115;-86
2021/09/30 11:37:00;;;;;;;6.68;1.02;;;;;;;;;;5091763;28;20403;-87
2021/09/30 11:39:34;;;;;;;6.13;1.08;;;;;;;;;;5076128;28;20025;-86
2021/09/30 11:42:00;;;;;;;7.20;1.33;;;;;;;;;;5076013;28;20016;-86
2021/09/30 11:44:26;;;;;;;6.82;1.30;;;;;;;;;;5075514;28;20116;-87
2021/09/30 11:46:53;;;;;;;8.63;1.20;;;;;;;;;;5075001;28;20066;-87
2021/09/30 11:49:19;;;;;;;8.32;1.48;;;;;;;;;;5074822;28;20237;-87
2021/09/30 11:51:47;;;;;;;5.88;1.08;;;;;;;;;;5074563;28;20480;-87
2021/09/30 11:54:15;;;;;;;7.35;1.33;;;;;;;;;;5073445;28;20028;-88
2021/09/30 11:56:42;;;;;;;6.88;1.60;;;;;;;;;;5075832;28;20048;-87
2021/09/30 11:59:08;;;;;;;7.90;1.20;;;;;;;;;;5076292;28;20062;-87
2021/09/30 12:01:45;;;;;;;8.40;1.70;;;;;;;;;;5091294;28;20029;-86
2021/09/30 12:04:13;;;;;;;3.95;1.02;;;;;;;;;;5074142;28;20052;-86
2021/09/30 12:06:46;;;;;;;11.00;1.35;;;;;;;;;;5074868;28;20981;-87
2021/09/30 12:09:14;;;;;;;6.45;1.23;;;;;;;;;;5095392;28;20016;-86
2021/09/30 12:11:48;;;;;;;7.55;1.10;;;;;;;;;;5095384;28;20028;-86
2021/09/30 12:14:15;;;;;;;8.85;1.20;;;;;;;;;;5079521;28;20099;-85
2021/09/30 12:17:02;;;;;;;5.70;1.17;;;;;;;;;;5077113;28;20024;-86
2021/09/30 12:19:28;;;;;;;6.05;0.80;;;;;;;;;;5076737;28;20131;-86
2021/09/30 12:21:54;;;;;;;5.07;0.73;;;;;;;;;;5083371;28;20028;-88
2021/09/30 12:24:19;;;;;;;5.07;1.15;;;;;;;;;;5073207;28;20028;-87
2021/09/30 12:26:45;;;;;;;10.27;1.30;;;;;;;;;;5091480;28;20077;-87
2021/09/30 12:29:10;;;;;;;7.97;1.10;;;;;;;;;;5081532;28;20032;-86
2021/09/30 12:31:35;;;;;;;5.63;0.95;;;;;;;;;;5073929;28;20082;-87
2021/09/30 12:34:21;;;;;;;9.30;1.17;;;;;;;;;;5073335;28;20414;-86
2021/09/30 12:36:46;;;;;;;5.53;1.02;;;;;;;;;;5080953;28;20031;-86
2021/09/30 12:39:12;;;;;;;5.97;1.20;;;;;;;;;;5075921;28;20029;-86
2021/09/30 12:41:37;;;;;;;8.95;0.90;;;;;;;;;;5074477;28;20024;-87
2021/09/30 12:44:13;;;;;;;3.97;1.20;;;;;;;;;;5072813;28;20047;-86
2021/09/30 12:46:47;;;;;;;3.97;0.77;;;;;;;;;;5074076;28;20040;-85
2021/09/30 12:49:14;;;;;;;5.53;0.93;;;;;;;;;;5077300;28;20044;-85
2021/09/30 12:51:39;;;;;;;5.65;1.10;;;;;;;;;;5074648;28;20021;-85
2021/09/30 12:54:05;;;;;;;4.30;1.00;;;;;;;;;;5076239;28;20049;-87
2021/09/30 12:56:32;;;;;;;7.38;1.40;;;;;;;;;;5095123;28;20454;-85
2021/09/30 12:59:13;;;;;;;6.40;1.00;;;;;;;;;;5093521;28;20123;-86
2021/09/30 13:01:40;;;;;;;5.85;0.80;;;;;;;;;;5103566;28;20000;-86
2021/09/30 13:04:25;;;;;;;4.18;0.90;;;;;;;;;;5112022;28;20036;-86
2021/09/30 13:06:50;;;;;;;5.53;1.17;;;;;;;;;;5094596;28;20020;-87
2021/09/30 13:09:22;;;;;;;7.95;1.60;;;;;;;;;;5093145;28;20024;-85
2021/09/30 13:11:53;;;;;;;5.05;1.13;;;;;;;;;;5091943;28;20032;-86
2021/09/30 13:14:23;;;;;;;6.65;0.90;;;;;;;;;;5093489;28;20012;-85
2021/09/30 13:16:54;;;;;;;7.03;1.20;;;;;;;;;;5095213;28;20032;-86
2021/09/30 13:19:38;;;;;;;5.15;1.13;;;;;;;;;;5091981;28;20305;-85
2021/09/30 13:22:04;;;;;;;4.57;1.08;;;;;;;;;;5093807;28;20537;-84
2021/09/30 13:24:35;;;;;;;6.13;0.85;;;;;;;;;;5093237;28;20146;-87
2021/09/30 13:27:00;;;;;;;7.43;1.30;;;;;;;;;;5094030;28;20035;-88
2021/09/30 13:29:26;;;;;;;9.48;1.13;;;;;;;;;;5094138;28;20024;-87
2021/09/30 13:31:51;;;;;;;5.55;1.17;;;;;;;;;;5092576;28;20020;-86
2021/09/30 13:34:18;;;;;;;1.23;0.60;;;;;;;;;;5094563;28;20032;-86
2021/09/30 13:36:43;;;;;;;2.63;0.73;;;;;;;;;;5095538;28;20364;-88
2021/09/30 13:39:09;;;;;;;2.50;0.70;;;;;;;;;;5095862;28;20104;-86
2021/09/30 13:41:34;;;;;;;4.28;0.60;;;;;;;;;;5099826;28;20010;-86
2021/09/30 13:44:00;;;;;;;6.75;1.30;;;;;;;;;;5095772;28;20024;-85
2021/09/30 13:46:25;;;;;;;3.15;1.02;;;;;;;;;;5093850;28;20024;-85
2021/09/30 13:48:51;;;;;;;6.97;1.20;;;;;;;;;;5093299;28;20567;-86
2021/09/30 13:51:16;;;;;;;4.20;0.80;;;;;;;;;;5095404;28;20483;-88
2021/09/30 13:53:41;;;;;;;4.85;0.75;;;;;;;;;;5095151;28;20094;-86
2021/09/30 13:56:07;;;;;;;3.45;0.80;;;;;;;;;;5093422;28;20023;-87
2021/09/30 13:58:35;;;;;;;2.72;0.80;;;;;;;;;;5093200;28;20479;-84
2021/09/30 14:01:00;;;;;;;4.05;0.73;;;;;;;;;;5094143;28;20111;-85
2021/09/30 14:03:27;;;;;;;4.55;0.68;;;;;;;;;;5095245;28;20044;-87
2021/09/30 14:05:52;;;;;;;6.45;1.35;;;;;;;;;;5098995;28;20583;-88
2021/09/30 14:08:19;;;;;;;5.10;1.23;;;;;;;;;;5093340;28;20070;-87
2021/09/30 14:10:45;;;;;;;3.85;0.73;;;;;;;;;;5094226;28;20032;-88
2021/09/30 14:13:11;;;;;;;4.97;0.80;;;;;;;;;;5092727;28;20028;-86
2021/09/30 14:15:36;;;;;;;5.07;1.13;;;;;;;;;;5092197;28;20020;-87
2021/09/30 14:18:03;;;;;;;5.80;0.93;;;;;;;;;;5092094;28;20028;-86
2021/09/30 14:20:29;;;;;;;8.05;1.30;;;;;;;;;;5094998;28;20035;-87
2021/09/30 14:22:54;;;;;;;2.70;0.85;;;;;;;;;;5094939;28;20024;-87
2021/09/30 14:25:19;;;;;;;7.55;1.02;;;;;;;;;;5094805;28;20475;-87
2021/09/30 14:27:45;;;;;;;3.35;1.20;;;;;;;;;;5098831;28;20386;-88
2021/09/30 14:30:11;;;;;;;5.68;1.00;;;;;;;;;;5097800;28;20040;-86
2021/09/30 14:32:36;;;;;;;5.85;1.27;;;;;;;;;;5098294;28;20024;-87
2021/09/30 14:35:03;;;;;;;2.88;0.95;;;;;;;;;;5097520;28;20031;-87
2021/09/30 14:37:28;;;;;;;7.63;1.15;;;;;;;;;;5097466;28;20564;-86
2021/09/30 14:39:53;;;;;;;1.73;0.47;;;;;;;;;;5098172;28;20032;-87
2021/09/30 14:42:19;;;;;;;4.22;0.70;;;;;;;;;;5086039;28;20023;-88
2021/09/30 14:44:46;;;;;;;6.35;1.75;;;;;;;;;;5093991;28;20494;-86
2021/09/30 14:47:12;;;;;;;4.13;0.90;;;;;;;;;;5096521;28;20050;-87
2021/09/30 14:49:39;;;;;;;4.65;0.80;;;;;;;;;;5096086;28;20053;-87
2021/09/30 14:52:09;;;;;;;4.95;1.05;;;;;;;;;;5096219;28;20057;-87
2021/09/30 14:54:35;;;;;;;5.93;0.63;;;;;;;;;;5097172;28;20024;-86
2021/09/30 14:57:00;;;;;;;5.15;1.00;;;;;;;;;;5096803;28;20023;-87
2021/09/30 14:59:26;;;;;;;8.50;0.80;;;;;;;;;;5096458;28;20028;-86
2021/09/30 15:02:03;;;;;;;6.32;1.10;;;;;;;;;;5095585;28;20024;-84
2021/09/30 15:04:28;;;;;;;3.33;0.98;;;;;;;;;;5102371;28;20052;-84
2021/09/30 15:06:53;;;;;;;4.05;0.90;;;;;;;;;;5100342;28;20422;-84
2021/09/30 15:09:19;;;;;;;4.25;0.70;;;;;;;;;;5096323;28;20102;-84
2021/09/30 15:11:44;;;;;;;8.32;0.88;;;;;;;;;;5095791;28;20103;-85
2021/09/30 15:14:12;;;;;;;3.92;0.75;;;;;;;;;;5096355;28;20027;-85
2021/09/30 15:16:42;;;;;;;7.53;1.52;;;;;;;;;;5094721;28;20070;-84
2021/09/30 15:19:15;;;;;;;2.58;0.80;;;;;;;;;;5097061;28;20036;-85
2021/09/30 15:21:41;;;;;;;6.40;1.35;;;;;;;;;;5080491;28;20111;-85
2021/09/30 15:24:06;;;;;;;4.90;1.10;;;;;;;;;;5075480;28;20506;-84
2021/09/30 15:26:34;;;;;;;4.63;1.27;;;;;;;;;;5076212;28;20120;-84
2021/09/30 15:29:00;;;;;;;7.90;1.30;;;;;;;;;;5075305;28;20133;-85
2021/09/30 15:31:27;;;;;;;3.40;0.90;;;;;;;;;;5085583;28;20553;-86
2021/09/30 15:33:53;;;;;;;4.05;0.82;;;;;;;;;;5096279;28;20067;-88
2021/09/30 15:36:23;;;;;;;5.43;0.77;;;;;;;;;;5097040;28;20139;-84
2021/09/30 15:38:49;;;;;;;6.10;0.88;;;;;;;;;;5094711;28;20107;-86
2021/09/30 15:41:15;;;;;;;7.05;0.90;;;;;;;;;;5096088;28;20081;-85
2021/09/30 15:43:40;;;;;;;5.72;0.70;;;;;;;;;;5095484;28;20031;-85
2021/09/30 15:46:05;;;;;;;4.90;0.60;;;;;;;;;;5094942;28;20502;-84
2021/09/30 15:48:31;;;;;;;7.35;1.17;;;;;;;;;;5097169;28;20632;-85
2021/09/30 15:50:58;;;;;;;4.28;0.80;;;;;;;;;;5096031;28;20024;-85
2021/09/30 15:53:24;;;;;;;5.35;0.70;;;;;;;;;;5096028;28;20513;-85
2021/09/30 15:55:52;;;;;;;4.72;0.90;;;;;;;;;;5097836;28;20020;-85
2021/09/30 15:58:18;;;;;;;5.20;1.00;;;;;;;;;;5097414;28;20074;-84
2021/09/30 16:00:43;;;;;;;8.80;0.73;;;;;;;;;;5094765;28;20119;-86
2021/09/30 16:03:09;;;;;;;2.72;0.68;;;;;;;;;;5096051;28;20043;-84
2021/09/30 16:05:35;;;;;;;6.10;0.95;;;;;;;;;;5096786;28;20075;-84
2021/09/30 16:08:00;;;;;;;4.97;0.80;;;;;;;;;;5096648;28;20028;-85
2021/09/30 16:10:25;;;;;;;5.07;1.05;;;;;;;;;;5095001;28;20031;-84
2021/09/30 16:12:51;;;;;;;7.68;1.27;;;;;;;;;;5076474;28;20027;-84
2021/09/30 16:15:16;;;;;;;7.03;0.82;;;;;;;;;;5080406;28;20031;-84
2021/09/30 16:17:42;;;;;;;4.65;1.08;;;;;;;;;;5089967;28;20036;-84
2021/09/30 16:20:09;;;;;;;6.60;1.10;;;;;;;;;;5090794;28;20020;-84
2021/09/30 16:22:35;;;;;;;4.07;0.82;;;;;;;;;;5092110;28;20106;-85
2021/09/30 16:25:03;;;;;;;6.43;1.33;;;;;;;;;;5096223;28;20031;-84
2021/09/30 16:27:29;;;;;;;6.25;1.08;;;;;;;;;;5076560;28;20024;-85
2021/09/30 16:29:55;;;;;;;2.95;0.73;;;;;;;;;;5073013;28;20103;-84
2021/09/30 16:32:21;;;;;;;3.50;0.70;;;;;;;;;;5080837;28;20081;-84
2021/09/30 16:34:46;;;;;;;6.47;0.93;;;;;;;;;;5074542;28;20025;-84
2021/09/30 16:37:12;;;;;;;9.30;1.33;;;;;;;;;;5074199;28;20036;-85
2021/09/30 16:39:37;;;;;;;3.97;0.90;;;;;;;;;;5094612;28;20028;-85
2021/09/30 16:42:03;;;;;;;4.05;1.40;;;;;;;;;;5094095;28;20035;-84
2021/09/30 16:44:28;;;;;;;9.45;0.95;;;;;;;;;;5096082;28;20556;-85
2021/09/30 16:46:54;;;;;;;7.55;1.35;;;;;;;;;;5097565;28;20024;-85
2021/09/30 16:49:19;;;;;;;6.18;1.20;;;;;;;;;;5094694;28;20034;-85
2021/09/30 16:51:48;;;;;;;3.85;1.10;;;;;;;;;;5098113;28;20520;-86
2021/09/30 16:54:14;;;;;;;6.15;1.13;;;;;;;;;;5097078;28;20107;-86
2021/09/30 16:56:39;;;;;;;4.32;1.05;;;;;;;;;;5094194;28;20063;-86
2021/09/30 16:59:07;;;;;;;4.50;1.05;;;;;;;;;;5095780;28;20049;-86
2021/09/30 17:01:32;;;;;;;4.90;1.30;;;;;;;;;;5093300;28;20031;-86
2021/09/30 17:03:57;;;;;;;7.57;2.20;;;;;;;;;;5093113;28;20402;-86
2021/09/30 17:06:23;;;;;;;3.35;1.10;;;;;;;;;;5096688;28;20387;-86
2021/09/30 17:08:48;;;;;;;6.13;1.25;;;;;;;;;;5091606;28;20020;-83
2021/09/30 17:11:18;;;;;;;5.13;1.35;;;;;;;;;;5097066;28;20043;-86
2021/09/30 17:13:44;;;;;;;8.85;2.10;;;;;;;;;;5093660;28;20027;-86
2021/09/30 17:16:09;;;;;;;6.10;1.88;;;;;;;;;;5092224;28;20072;-86
2021/09/30 17:18:35;;;;;;;11.90;2.78;;;;;;;;;;5093414;28;20118;-86
2021/09/30 17:21:01;;;;;;;5.65;1.55;;;;;;;;;;5096857;28;20030;-86
2021/09/30 17:23:27;;;;;;;5.35;1.65;;;;;;;;;;5079786;28;20031;-86
2021/09/30 17:25:53;;;;;;;5.03;1.90;;;;;;;;;;5072126;28;20111;-86
2021/09/30 17:28:18;;;;;;;8.25;1.90;;;;;;;;;;5093066;28;20043;-87
2021/09/30 17:30:43;;;;;;;8.80;2.13;;;;;;;;;;5098532;28;20063;-87
2021/09/30 17:33:09;;;;;;;11.50;3.00;;;;;;;;;;5098890;28;20020;-86